Terminal Aerodrome Forecast
Issued by NWS

Home | Current Version | Previous Version | Text Only | Print | Product List | Glossary On
Versions: 1 2 3 4 5 6 7 8 9 10 11 12 13 14 15 16 17 18 19 20 21 22
000
FTUS41 KGYX 291727
TAFRKD
TAF
KRKD 291727Z 2918/3018 12008KT 6SM HZ SCT040
     FM292100 14005KT 6SM BR SCT007
     FM292300 17002KT 4SM BR BKN007
     FM300200 18003KT 1SM BR OVC002
     FM301400 18004KT P6SM SCT003
      AMD LTD TO CLD VIS AND WIND=

USA.gov is the U.S. government's official web portal to all federal, state and local government web resources and services.